sensor_id;sensor_type;location;lat;lon;timestamp;P1;durP1;ratioP1;P2;durP2;ratioP2
17917;SDS011;9084;50.956;3.106;2023-04-30T00:01:52;11.32;;;10.18;;
17917;SDS011;9084;50.956;3.106;2023-04-30T00:04:20;9.60;;;8.68;;
17917;SDS011;9084;50.956;3.106;2023-04-30T00:06:45;10.15;;;9.13;;
17917;SDS011;9084;50.956;3.106;2023-04-30T00:09:11;11.40;;;10.32;;
17917;SDS011;9084;50.956;3.106;2023-04-30T00:11:37;11.38;;;10.38;;
17917;SDS011;9084;50.956;3.106;2023-04-30T00:14:02;10.77;;;9.77;;
17917;SDS011;9084;50.956;3.106;2023-04-30T00:16:28;15.13;;;9.75;;
17917;SDS011;9084;50.956;3.106;2023-04-30T00:18:54;12.07;;;10.93;;
17917;SDS011;9084;50.956;3.106;2023-04-30T00:21:19;12.77;;;11.57;;
17917;SDS011;9084;50.956;3.106;2023-04-30T00:23:45;14.00;;;10.25;;
17917;SDS011;9084;50.956;3.106;2023-04-30T00:26:11;10.70;;;9.65;;
17917;SDS011;9084;50.956;3.106;2023-04-30T00:28:36;11.18;;;10.07;;
17917;SDS011;9084;50.956;3.106;2023-04-30T00:31:02;11.45;;;10.13;;
17917;SDS011;9084;50.956;3.106;2023-04-30T00:33:33;12.82;;;11.52;;
17917;SDS011;9084;50.956;3.106;2023-04-30T00:35:59;13.00;;;11.77;;
17917;SDS011;9084;50.956;3.106;2023-04-30T00:38:25;11.57;;;10.18;;
17917;SDS011;9084;50.956;3.106;2023-04-30T00:40:50;14.02;;;9.60;;
17917;SDS011;9084;50.956;3.106;2023-04-30T00:43:16;10.43;;;9.43;;
17917;SDS011;9084;50.956;3.106;2023-04-30T00:45:42;11.75;;;9.95;;
17917;SDS011;9084;50.956;3.106;2023-04-30T00:48:07;11.32;;;10.25;;
17917;SDS011;9084;50.956;3.106;2023-04-30T00:50:36;10.68;;;9.68;;
17917;SDS011;9084;50.956;3.106;2023-04-30T00:53:05;11.27;;;9.90;;
17917;SDS011;9084;50.956;3.106;2023-04-30T00:55:30;13.07;;;11.80;;
17917;SDS011;9084;50.956;3.106;2023-04-30T00:57:57;13.10;;;11.80;;
17917;SDS011;9084;50.956;3.106;2023-04-30T01:00:24;12.57;;;11.45;;
17917;SDS011;9084;50.956;3.106;2023-04-30T01:02:51;13.15;;;11.75;;
17917;SDS011;9084;50.956;3.106;2023-04-30T01:05:17;12.73;;;9.40;;
17917;SDS011;9084;50.956;3.106;2023-04-30T01:07:43;12.70;;;11.55;;
17917;SDS011;9084;50.956;3.106;2023-04-30T01:10:14;12.65;;;11.45;;
17917;SDS011;9084;50.956;3.106;2023-04-30T01:12:57;13.45;;;11.93;;
17917;SDS011;9084;50.956;3.106;2023-04-30T01:18:12;12.15;;;10.93;;
17917;SDS011;9084;50.956;3.106;2023-04-30T01:20:49;13.00;;;11.70;;
17917;SDS011;9084;50.956;3.106;2023-04-30T01:28:35;12.23;;;10.95;;
17917;SDS011;9084;50.956;3.106;2023-04-30T01:31:15;10.48;;;9.48;;
17917;SDS011;9084;50.956;3.106;2023-04-30T01:33:47;11.75;;;10.75;;
17917;SDS011;9084;50.956;3.106;2023-04-30T01:39:10;11.07;;;10.05;;
17917;SDS011;9084;50.956;3.106;2023-04-30T01:44:40;11.00;;;10.10;;
17917;SDS011;9084;50.956;3.106;2023-04-30T01:55:15;12.43;;;11.23;;
17917;SDS011;9084;50.956;3.106;2023-04-30T01:58:04;12.30;;;11.20;;
17917;SDS011;9084;50.956;3.106;2023-04-30T02:00:33;12.60;;;11.57;;
17917;SDS011;9084;50.956;3.106;2023-04-30T02:02:59;14.20;;;12.90;;
17917;SDS011;9084;50.956;3.106;2023-04-30T02:05:25;12.82;;;11.65;;
17917;SDS011;9084;50.956;3.106;2023-04-30T02:07:51;13.90;;;12.63;;
17917;SDS011;9084;50.956;3.106;2023-04-30T02:10:21;13.00;;;11.90;;
17917;SDS011;9084;50.956;3.106;2023-04-30T02:12:48;13.98;;;12.63;;
17917;SDS011;9084;50.956;3.106;2023-04-30T02:15:15;13.13;;;11.82;;
17917;SDS011;9084;50.956;3.106;2023-04-30T02:17:42;13.55;;;12.15;;
17917;SDS011;9084;50.956;3.106;2023-04-30T02:20:08;13.63;;;12.43;;
17917;SDS011;9084;50.956;3.106;2023-04-30T02:22:35;13.75;;;12.13;;
17917;SDS011;9084;50.956;3.106;2023-04-30T02:25:00;14.02;;;12.57;;
17917;SDS011;9084;50.956;3.106;2023-04-30T02:27:28;14.10;;;12.85;;
17917;SDS011;9084;50.956;3.106;2023-04-30T02:29:55;14.02;;;12.63;;
17917;SDS011;9084;50.956;3.106;2023-04-30T02:32:21;12.98;;;11.75;;
17917;SDS011;9084;50.956;3.106;2023-04-30T02:34:47;14.02;;;12.73;;
17917;SDS011;9084;50.956;3.106;2023-04-30T02:37:13;12.90;;;11.70;;
17917;SDS011;9084;50.956;3.106;2023-04-30T02:39:39;13.23;;;11.83;;
17917;SDS011;9084;50.956;3.106;2023-04-30T02:42:05;13.97;;;12.77;;
17917;SDS011;9084;50.956;3.106;2023-04-30T02:44:33;13.48;;;12.18;;
17917;SDS011;9084;50.956;3.106;2023-04-30T02:46:59;12.80;;;11.43;;
17917;SDS011;9084;50.956;3.106;2023-04-30T02:49:26;13.23;;;12.02;;
17917;SDS011;9084;50.956;3.106;2023-04-30T02:51:52;13.10;;;11.90;;
17917;SDS011;9084;50.956;3.106;2023-04-30T02:54:18;13.60;;;12.25;;
17917;SDS011;9084;50.956;3.106;2023-04-30T02:56:46;13.53;;;12.13;;
17917;SDS011;9084;50.956;3.106;2023-04-30T02:59:12;14.18;;;12.80;;
17917;SDS011;9084;50.956;3.106;2023-04-30T03:01:38;14.32;;;13.00;;
17917;SDS011;9084;50.956;3.106;2023-04-30T03:04:08;12.65;;;11.55;;
17917;SDS011;9084;50.956;3.106;2023-04-30T03:06:36;12.75;;;11.45;;
17917;SDS011;9084;50.956;3.106;2023-04-30T03:09:02;12.20;;;11.00;;
17917;SDS011;9084;50.956;3.106;2023-04-30T03:11:27;13.48;;;12.23;;
17917;SDS011;9084;50.956;3.106;2023-04-30T03:13:53;12.05;;;10.90;;
17917;SDS011;9084;50.956;3.106;2023-04-30T03:16:19;11.93;;;10.93;;
17917;SDS011;9084;50.956;3.106;2023-04-30T03:18:46;12.27;;;11.23;;
17917;SDS011;9084;50.956;3.106;2023-04-30T03:21:12;13.00;;;11.70;;
17917;SDS011;9084;50.956;3.106;2023-04-30T03:23:40;13.15;;;11.80;;
17917;SDS011;9084;50.956;3.106;2023-04-30T03:26:06;13.13;;;11.93;;
17917;SDS011;9084;50.956;3.106;2023-04-30T03:28:32;11.20;;;10.07;;
17917;SDS011;9084;50.956;3.106;2023-04-30T03:30:59;12.95;;;11.73;;
17917;SDS011;9084;50.956;3.106;2023-04-30T03:33:24;12.27;;;11.18;;
17917;SDS011;9084;50.956;3.106;2023-04-30T03:35:50;13.00;;;11.77;;
17917;SDS011;9084;50.956;3.106;2023-04-30T03:38:16;13.00;;;11.88;;
17917;SDS011;9084;50.956;3.106;2023-04-30T03:40:47;12.90;;;11.37;;
17917;SDS011;9084;50.956;3.106;2023-04-30T03:43:15;12.43;;;11.30;;
17917;SDS011;9084;50.956;3.106;2023-04-30T03:45:40;12.80;;;11.70;;
17917;SDS011;9084;50.956;3.106;2023-04-30T03:48:06;12.52;;;11.32;;
17917;SDS011;9084;50.956;3.106;2023-04-30T03:50:32;12.57;;;11.27;;
17917;SDS011;9084;50.956;3.106;2023-04-30T03:52:57;12.48;;;11.25;;
17917;SDS011;9084;50.956;3.106;2023-04-30T03:55:25;12.70;;;11.43;;
17917;SDS011;9084;50.956;3.106;2023-04-30T03:57:51;12.10;;;11.05;;
17917;SDS011;9084;50.956;3.106;2023-04-30T04:00:17;13.27;;;12.07;;
17917;SDS011;9084;50.956;3.106;2023-04-30T04:02:42;13.43;;;12.10;;
17917;SDS011;9084;50.956;3.106;2023-04-30T04:05:10;13.20;;;11.95;;
17917;SDS011;9084;50.956;3.106;2023-04-30T04:07:36;13.25;;;11.85;;
17917;SDS011;9084;50.956;3.106;2023-04-30T04:10:04;12.03;;;10.80;;
17917;SDS011;9084;50.956;3.106;2023-04-30T04:12:30;12.32;;;11.23;;
17917;SDS011;9084;50.956;3.106;2023-04-30T04:14:58;13.25;;;12.05;;
17917;SDS011;9084;50.956;3.106;2023-04-30T04:17:26;13.57;;;11.98;;
17917;SDS011;9084;50.956;3.106;2023-04-30T04:19:51;12.52;;;11.27;;
17917;SDS011;9084;50.956;3.106;2023-04-30T04:22:17;13.43;;;12.13;;
17917;SDS011;9084;50.956;3.106;2023-04-30T04:24:45;13.13;;;11.73;;
17917;SDS011;9084;50.956;3.106;2023-04-30T04:27:13;13.18;;;11.90;;
17917;SDS011;9084;50.956;3.106;2023-04-30T04:29:44;12.45;;;11.20;;
17917;SDS011;9084;50.956;3.106;2023-04-30T04:32:12;12.38;;;11.13;;
17917;SDS011;9084;50.956;3.106;2023-04-30T04:34:38;12.60;;;11.55;;
17917;SDS011;9084;50.956;3.106;2023-04-30T04:37:04;12.70;;;11.52;;
17917;SDS011;9084;50.956;3.106;2023-04-30T04:39:29;13.00;;;11.57;;
17917;SDS011;9084;50.956;3.106;2023-04-30T04:41:55;11.93;;;10.80;;
17917;SDS011;9084;50.956;3.106;2023-04-30T04:44:21;12.10;;;10.90;;
17917;SDS011;9084;50.956;3.106;2023-04-30T04:46:47;11.77;;;10.77;;
17917;SDS011;9084;50.956;3.106;2023-04-30T04:49:17;12.23;;;11.20;;
17917;SDS011;9084;50.956;3.106;2023-04-30T04:51:46;12.55;;;11.35;;
17917;SDS011;9084;50.956;3.106;2023-04-30T04:54:11;12.95;;;11.75;;
17917;SDS011;9084;50.956;3.106;2023-04-30T04:56:37;13.35;;;11.50;;
17917;SDS011;9084;50.956;3.106;2023-04-30T04:59:03;12.15;;;11.05;;
17917;SDS011;9084;50.956;3.106;2023-04-30T05:01:28;12.52;;;11.43;;
17917;SDS011;9084;50.956;3.106;2023-04-30T05:03:54;12.18;;;11.02;;
17917;SDS011;9084;50.956;3.106;2023-04-30T05:06:20;11.40;;;10.15;;
17917;SDS011;9084;50.956;3.106;2023-04-30T05:08:46;10.85;;;9.95;;
17917;SDS011;9084;50.956;3.106;2023-04-30T05:11:14;11.38;;;10.48;;
17917;SDS011;9084;50.956;3.106;2023-04-30T05:13:40;11.52;;;10.32;;
17917;SDS011;9084;50.956;3.106;2023-04-30T05:16:06;12.27;;;11.13;;
17917;SDS011;9084;50.956;3.106;2023-04-30T05:18:34;11.80;;;10.63;;
17917;SDS011;9084;50.956;3.106;2023-04-30T05:21:00;12.10;;;10.90;;
17917;SDS011;9084;50.956;3.106;2023-04-30T05:23:25;12.65;;;11.38;;
17917;SDS011;9084;50.956;3.106;2023-04-30T05:25:52;13.57;;;12.00;;
17917;SDS011;9084;50.956;3.106;2023-04-30T05:28:18;13.00;;;11.68;;
17917;SDS011;9084;50.956;3.106;2023-04-30T05:30:43;11.48;;;10.32;;
17917;SDS011;9084;50.956;3.106;2023-04-30T05:33:11;13.00;;;11.85;;
17917;SDS011;9084;50.956;3.106;2023-04-30T05:35:37;13.57;;;10.95;;
17917;SDS011;9084;50.956;3.106;2023-04-30T05:38:03;12.35;;;11.07;;
17917;SDS011;9084;50.956;3.106;2023-04-30T05:40:28;14.68;;;11.85;;
17917;SDS011;9084;50.956;3.106;2023-04-30T05:42:59;11.60;;;10.50;;
17917;SDS011;9084;50.956;3.106;2023-04-30T05:45:29;13.60;;;9.70;;
17917;SDS011;9084;50.956;3.106;2023-04-30T05:47:57;10.40;;;9.40;;
17917;SDS011;9084;50.956;3.106;2023-04-30T05:50:23;10.68;;;9.75;;
17917;SDS011;9084;50.956;3.106;2023-04-30T05:52:48;11.40;;;10.32;;
17917;SDS011;9084;50.956;3.106;2023-04-30T05:55:14;12.75;;;10.60;;
17917;SDS011;9084;50.956;3.106;2023-04-30T05:57:40;10.45;;;9.45;;
17917;SDS011;9084;50.956;3.106;2023-04-30T06:00:05;12.07;;;9.90;;
17917;SDS011;9084;50.956;3.106;2023-04-30T06:02:34;10.77;;;9.75;;
17917;SDS011;9084;50.956;3.106;2023-04-30T06:04:59;11.20;;;9.63;;
17917;SDS011;9084;50.956;3.106;2023-04-30T06:07:27;12.27;;;10.07;;
17917;SDS011;9084;50.956;3.106;2023-04-30T06:09:53;9.90;;;8.90;;
17917;SDS011;9084;50.956;3.106;2023-04-30T06:12:25;11.70;;;10.52;;
17917;SDS011;9084;50.956;3.106;2023-04-30T06:14:50;11.57;;;9.65;;
17917;SDS011;9084;50.956;3.106;2023-04-30T06:17:18;10.25;;;8.77;;
17917;SDS011;9084;50.956;3.106;2023-04-30T06:19:46;10.30;;;9.23;;
17917;SDS011;9084;50.956;3.106;2023-04-30T06:22:12;10.98;;;9.82;;
17917;SDS011;9084;50.956;3.106;2023-04-30T06:24:38;10.85;;;9.77;;
17917;SDS011;9084;50.956;3.106;2023-04-30T06:27:03;10.88;;;9.70;;
17917;SDS011;9084;50.956;3.106;2023-04-30T06:29:29;11.32;;;9.07;;
17917;SDS011;9084;50.956;3.106;2023-04-30T06:31:55;9.90;;;8.60;;
17917;SDS011;9084;50.956;3.106;2023-04-30T06:34:23;10.50;;;9.50;;
17917;SDS011;9084;50.956;3.106;2023-04-30T06:36:55;9.85;;;8.85;;
17917;SDS011;9084;50.956;3.106;2023-04-30T06:39:21;10.35;;;9.35;;
17917;SDS011;9084;50.956;3.106;2023-04-30T06:41:47;9.43;;;8.60;;
17917;SDS011;9084;50.956;3.106;2023-04-30T06:44:12;10.30;;;9.15;;
17917;SDS011;9084;50.956;3.106;2023-04-30T06:46:39;10.50;;;9.43;;
17917;SDS011;9084;50.956;3.106;2023-04-30T06:49:04;9.45;;;8.65;;
17917;SDS011;9084;50.956;3.106;2023-04-30T06:51:30;10.23;;;9.23;;
17917;SDS011;9084;50.956;3.106;2023-04-30T06:53:56;10.77;;;9.77;;
17917;SDS011;9084;50.956;3.106;2023-04-30T06:56:24;10.10;;;9.20;;
17917;SDS011;9084;50.956;3.106;2023-04-30T06:58:50;10.43;;;9.43;;
17917;SDS011;9084;50.956;3.106;2023-04-30T07:01:16;9.55;;;8.73;;
17917;SDS011;9084;50.956;3.106;2023-04-30T07:03:44;11.27;;;9.65;;
17917;SDS011;9084;50.956;3.106;2023-04-30T07:06:16;9.77;;;8.88;;
17917;SDS011;9084;50.956;3.106;2023-04-30T07:08:42;10.82;;;9.80;;
17917;SDS011;9084;50.956;3.106;2023-04-30T07:11:08;11.45;;;10.30;;
17917;SDS011;9084;50.956;3.106;2023-04-30T07:13:34;10.27;;;9.38;;
17917;SDS011;9084;50.956;3.106;2023-04-30T07:15:59;10.63;;;9.68;;
17917;SDS011;9084;50.956;3.106;2023-04-30T07:18:25;9.98;;;9.07;;
17917;SDS011;9084;50.956;3.106;2023-04-30T07:20:50;10.15;;;9.25;;
17917;SDS011;9084;50.956;3.106;2023-04-30T07:23:16;10.63;;;9.73;;
17917;SDS011;9084;50.956;3.106;2023-04-30T07:25:44;11.93;;;10.52;;
17917;SDS011;9084;50.956;3.106;2023-04-30T07:28:10;10.25;;;9.30;;
17917;SDS011;9084;50.956;3.106;2023-04-30T07:30:36;9.55;;;8.75;;
17917;SDS011;9084;50.956;3.106;2023-04-30T07:33:04;9.73;;;8.82;;
17917;SDS011;9084;50.956;3.106;2023-04-30T07:35:32;11.50;;;10.38;;
17917;SDS011;9084;50.956;3.106;2023-04-30T07:38:00;11.43;;;10.10;;
17917;SDS011;9084;50.956;3.106;2023-04-30T07:40:25;10.63;;;9.68;;
17917;SDS011;9084;50.956;3.106;2023-04-30T07:42:51;11.25;;;9.57;;
17917;SDS011;9084;50.956;3.106;2023-04-30T07:45:17;10.90;;;10.00;;
17917;SDS011;9084;50.956;3.106;2023-04-30T07:47:44;10.57;;;9.50;;
17917;SDS011;9084;50.956;3.106;2023-04-30T07:50:11;12.35;;;11.18;;
17917;SDS011;9084;50.956;3.106;2023-04-30T07:52:38;10.43;;;9.57;;
17917;SDS011;9084;50.956;3.106;2023-04-30T07:55:09;10.02;;;9.15;;
17917;SDS011;9084;50.956;3.106;2023-04-30T07:57:35;11.30;;;10.30;;
17917;SDS011;9084;50.956;3.106;2023-04-30T08:00:00;9.93;;;9.02;;
17917;SDS011;9084;50.956;3.106;2023-04-30T08:02:30;10.60;;;9.52;;
17917;SDS011;9084;50.956;3.106;2023-04-30T08:04:59;9.48;;;8.68;;
17917;SDS011;9084;50.956;3.106;2023-04-30T08:07:25;11.30;;;10.32;;
17917;SDS011;9084;50.956;3.106;2023-04-30T08:09:50;10.32;;;9.48;;
17917;SDS011;9084;50.956;3.106;2023-04-30T08:12:16;10.48;;;9.57;;
17917;SDS011;9084;50.956;3.106;2023-04-30T08:14:42;10.77;;;9.88;;
17917;SDS011;9084;50.956;3.106;2023-04-30T08:17:10;10.60;;;9.73;;
17917;SDS011;9084;50.956;3.106;2023-04-30T08:19:41;10.25;;;9.32;;
17917;SDS011;9084;50.956;3.106;2023-04-30T08:22:06;9.20;;;8.48;;
17917;SDS011;9084;50.956;3.106;2023-04-30T08:24:34;11.38;;;10.45;;
17917;SDS011;9084;50.956;3.106;2023-04-30T08:27:02;11.38;;;10.38;;
17917;SDS011;9084;50.956;3.106;2023-04-30T08:29:27;11.10;;;10.20;;
17917;SDS011;9084;50.956;3.106;2023-04-30T08:31:53;9.77;;;8.90;;
17917;SDS011;9084;50.956;3.106;2023-04-30T08:34:21;10.32;;;9.43;;
17917;SDS011;9084;50.956;3.106;2023-04-30T08:36:49;10.95;;;9.85;;
17917;SDS011;9084;50.956;3.106;2023-04-30T08:39:15;10.68;;;9.55;;
17917;SDS011;9084;50.956;3.106;2023-04-30T08:41:40;10.80;;;9.82;;
17917;SDS011;9084;50.956;3.106;2023-04-30T08:44:09;11.52;;;10.40;;
17917;SDS011;9084;50.956;3.106;2023-04-30T08:46:35;10.98;;;10.07;;
17917;SDS011;9084;50.956;3.106;2023-04-30T08:49:05;12.20;;;11.10;;
17917;SDS011;9084;50.956;3.106;2023-04-30T08:51:34;10.73;;;9.63;;
17917;SDS011;9084;50.956;3.106;2023-04-30T08:54:02;10.68;;;9.77;;
17917;SDS011;9084;50.956;3.106;2023-04-30T08:56:27;10.88;;;9.90;;
17917;SDS011;9084;50.956;3.106;2023-04-30T08:58:55;11.02;;;10.07;;
17917;SDS011;9084;50.956;3.106;2023-04-30T09:01:20;11.77;;;9.70;;
17917;SDS011;9084;50.956;3.106;2023-04-30T09:03:47;10.50;;;9.48;;
17917;SDS011;9084;50.956;3.106;2023-04-30T09:06:16;11.13;;;10.13;;
17917;SDS011;9084;50.956;3.106;2023-04-30T09:08:43;10.55;;;9.57;;
17917;SDS011;9084;50.956;3.106;2023-04-30T09:11:27;10.95;;;10.00;;
17917;SDS011;9084;50.956;3.106;2023-04-30T09:13:59;10.70;;;9.77;;
17917;SDS011;9084;50.956;3.106;2023-04-30T09:16:26;10.77;;;9.68;;
17917;SDS011;9084;50.956;3.106;2023-04-30T09:19:08;10.57;;;9.68;;
17917;SDS011;9084;50.956;3.106;2023-04-30T09:21:36;10.85;;;9.95;;
17917;SDS011;9084;50.956;3.106;2023-04-30T09:24:04;10.60;;;9.70;;
17917;SDS011;9084;50.956;3.106;2023-04-30T09:26:33;10.35;;;9.48;;
17917;SDS011;9084;50.956;3.106;2023-04-30T09:29:03;10.25;;;9.35;;
17917;SDS011;9084;50.956;3.106;2023-04-30T09:31:32;8.75;;;8.05;;
17917;SDS011;9084;50.956;3.106;2023-04-30T09:34:01;9.27;;;8.48;;
17917;SDS011;9084;50.956;3.106;2023-04-30T09:36:27;9.65;;;8.82;;
17917;SDS011;9084;50.956;3.106;2023-04-30T09:38:54;8.50;;;7.70;;
17917;SDS011;9084;50.956;3.106;2023-04-30T09:41:26;8.50;;;7.70;;
17917;SDS011;9084;50.956;3.106;2023-04-30T09:43:55;7.97;;;7.38;;
17917;SDS011;9084;50.956;3.106;2023-04-30T09:46:23;8.23;;;7.47;;
17917;SDS011;9084;50.956;3.106;2023-04-30T09:49:03;6.57;;;5.95;;
17917;SDS011;9084;50.956;3.106;2023-04-30T09:51:37;6.25;;;5.75;;
17917;SDS011;9084;50.956;3.106;2023-04-30T09:54:19;7.55;;;6.88;;
17917;SDS011;9084;50.956;3.106;2023-04-30T09:56:49;6.55;;;5.97;;
17917;SDS011;9084;50.956;3.106;2023-04-30T09:59:18;6.22;;;5.72;;
17917;SDS011;9084;50.956;3.106;2023-04-30T10:01:47;7.70;;;7.07;;
17917;SDS011;9084;50.956;3.106;2023-04-30T10:04:15;6.40;;;5.90;;
17917;SDS011;9084;50.956;3.106;2023-04-30T10:06:41;5.28;;;4.75;;
17917;SDS011;9084;50.956;3.106;2023-04-30T10:09:07;8.00;;;6.70;;
17917;SDS011;9084;50.956;3.106;2023-04-30T10:11:38;7.20;;;6.55;;
17917;SDS011;9084;50.956;3.106;2023-04-30T10:14:09;7.45;;;6.75;;
17917;SDS011;9084;50.956;3.106;2023-04-30T10:16:50;7.45;;;6.72;;
17917;SDS011;9084;50.956;3.106;2023-04-30T10:19:29;5.35;;;4.82;;
17917;SDS011;9084;50.956;3.106;2023-04-30T10:21:56;4.55;;;4.15;;
17917;SDS011;9084;50.956;3.106;2023-04-30T10:24:25;5.38;;;4.75;;
17917;SDS011;9084;50.956;3.106;2023-04-30T10:26:53;5.93;;;5.30;;
17917;SDS011;9084;50.956;3.106;2023-04-30T10:29:21;11.10;;;6.88;;
17917;SDS011;9084;50.956;3.106;2023-04-30T10:31:49;5.10;;;4.70;;
17917;SDS011;9084;50.956;3.106;2023-04-30T10:40:06;5.70;;;5.30;;
17917;SDS011;9084;50.956;3.106;2023-04-30T10:42:34;6.60;;;5.30;;
17917;SDS011;9084;50.956;3.106;2023-04-30T10:45:09;14.27;;;6.22;;
17917;SDS011;9084;50.956;3.106;2023-04-30T10:47:40;5.40;;;4.30;;
17917;SDS011;9084;50.956;3.106;2023-04-30T10:50:12;6.75;;;6.15;;
17917;SDS011;9084;50.956;3.106;2023-04-30T10:52:40;6.13;;;5.63;;
17917;SDS011;9084;50.956;3.106;2023-04-30T10:55:08;5.45;;;4.97;;
17917;SDS011;9084;50.956;3.106;2023-04-30T10:57:41;6.32;;;5.25;;
17917;SDS011;9084;50.956;3.106;2023-04-30T11:02:44;4.70;;;4.30;;
17917;SDS011;9084;50.956;3.106;2023-04-30T11:05:13;5.38;;;4.28;;
17917;SDS011;9084;50.956;3.106;2023-04-30T11:07:49;5.78;;;5.32;;
17917;SDS011;9084;50.956;3.106;2023-04-30T11:10:23;6.78;;;5.88;;
17917;SDS011;9084;50.956;3.106;2023-04-30T11:12:52;8.48;;;5.60;;
17917;SDS011;9084;50.956;3.106;2023-04-30T11:15:26;5.43;;;4.93;;
17917;SDS011;9084;50.956;3.106;2023-04-30T11:18:01;6.22;;;5.45;;
17917;SDS011;9084;50.956;3.106;2023-04-30T11:20:27;9.98;;;6.72;;
17917;SDS011;9084;50.956;3.106;2023-04-30T11:23:12;7.20;;;5.70;;
17917;SDS011;9084;50.956;3.106;2023-04-30T11:25:40;7.75;;;6.30;;
17917;SDS011;9084;50.956;3.106;2023-04-30T11:28:12;6.50;;;5.93;;
17917;SDS011;9084;50.956;3.106;2023-04-30T11:30:49;8.52;;;6.47;;
17917;SDS011;9084;50.956;3.106;2023-04-30T11:33:20;5.75;;;5.25;;
17917;SDS011;9084;50.956;3.106;2023-04-30T11:35:46;4.47;;;4.03;;
17917;SDS011;9084;50.956;3.106;2023-04-30T11:38:18;6.38;;;5.78;;
17917;SDS011;9084;50.956;3.106;2023-04-30T11:40:46;4.80;;;4.38;;
17917;SDS011;9084;50.956;3.106;2023-04-30T11:43:31;5.40;;;4.90;;
17917;SDS011;9084;50.956;3.106;2023-04-30T11:48:36;5.82;;;4.80;;
17917;SDS011;9084;50.956;3.106;2023-04-30T11:53:51;5.25;;;4.75;;
17917;SDS011;9084;50.956;3.106;2023-04-30T11:56:20;5.30;;;4.80;;
17917;SDS011;9084;50.956;3.106;2023-04-30T11:58:51;4.68;;;4.28;;
17917;SDS011;9084;50.956;3.106;2023-04-30T12:01:18;5.22;;;4.07;;
17917;SDS011;9084;50.956;3.106;2023-04-30T12:03:48;5.50;;;4.05;;
17917;SDS011;9084;50.956;3.106;2023-04-30T12:06:23;5.32;;;4.40;;
17917;SDS011;9084;50.956;3.106;2023-04-30T12:08:52;5.13;;;4.68;;
17917;SDS011;9084;50.956;3.106;2023-04-30T12:11:24;5.45;;;4.50;;
17917;SDS011;9084;50.956;3.106;2023-04-30T12:13:55;5.05;;;3.85;;
17917;SDS011;9084;50.956;3.106;2023-04-30T12:16:49;4.43;;;4.03;;
17917;SDS011;9084;50.956;3.106;2023-04-30T12:19:16;4.72;;;3.53;;
17917;SDS011;9084;50.956;3.106;2023-04-30T12:21:42;4.57;;;3.42;;
17917;SDS011;9084;50.956;3.106;2023-04-30T12:24:14;3.03;;;2.83;;
17917;SDS011;9084;50.956;3.106;2023-04-30T12:26:43;3.10;;;2.80;;
17917;SDS011;9084;50.956;3.106;2023-04-30T12:29:11;3.45;;;3.15;;
17917;SDS011;9084;50.956;3.106;2023-04-30T12:31:41;4.10;;;3.22;;
17917;SDS011;9084;50.956;3.106;2023-04-30T12:34:07;4.00;;;3.65;;
17917;SDS011;9084;50.956;3.106;2023-04-30T12:36:37;4.70;;;3.08;;
17917;SDS011;9084;50.956;3.106;2023-04-30T12:39:10;3.38;;;2.88;;
17917;SDS011;9084;50.956;3.106;2023-04-30T12:41:46;3.30;;;3.00;;
17917;SDS011;9084;50.956;3.106;2023-04-30T12:46:50;3.53;;;3.20;;
17917;SDS011;9084;50.956;3.106;2023-04-30T12:51:58;4.18;;;3.78;;
17917;SDS011;9084;50.956;3.106;2023-04-30T12:54:28;3.40;;;3.10;;
17917;SDS011;9084;50.956;3.106;2023-04-30T12:59:27;3.03;;;2.50;;
17917;SDS011;9084;50.956;3.106;2023-04-30T13:02:09;4.07;;;3.67;;
17917;SDS011;9084;50.956;3.106;2023-04-30T13:04:36;3.58;;;3.28;;
17917;SDS011;9084;50.956;3.106;2023-04-30T13:07:03;3.58;;;3.28;;
17917;SDS011;9084;50.956;3.106;2023-04-30T13:09:32;3.67;;;3.38;;
17917;SDS011;9084;50.956;3.106;2023-04-30T13:12:01;3.65;;;3.03;;
17917;SDS011;9084;50.956;3.106;2023-04-30T13:14:29;3.50;;;3.20;;
17917;SDS011;9084;50.956;3.106;2023-04-30T13:16:56;2.90;;;2.70;;
17917;SDS011;9084;50.956;3.106;2023-04-30T13:19:24;3.10;;;2.83;;
17917;SDS011;9084;50.956;3.106;2023-04-30T13:21:55;3.35;;;3.05;;
17917;SDS011;9084;50.956;3.106;2023-04-30T13:24:21;3.03;;;2.70;;
17917;SDS011;9084;50.956;3.106;2023-04-30T13:26:49;2.95;;;2.72;;
17917;SDS011;9084;50.956;3.106;2023-04-30T13:29:15;3.00;;;2.80;;
17917;SDS011;9084;50.956;3.106;2023-04-30T13:31:40;3.75;;;3.45;;
17917;SDS011;9084;50.956;3.106;2023-04-30T13:34:07;3.20;;;2.97;;
17917;SDS011;9084;50.956;3.106;2023-04-30T13:36:35;4.80;;;3.90;;
17917;SDS011;9084;50.956;3.106;2023-04-30T13:39:01;3.70;;;3.28;;
17917;SDS011;9084;50.956;3.106;2023-04-30T13:41:26;3.25;;;2.95;;
17917;SDS011;9084;50.956;3.106;2023-04-30T13:43:52;3.65;;;2.60;;
17917;SDS011;9084;50.956;3.106;2023-04-30T13:46:18;2.58;;;2.38;;
17917;SDS011;9084;50.956;3.106;2023-04-30T13:48:46;3.50;;;3.13;;
17917;SDS011;9084;50.956;3.106;2023-04-30T13:51:15;4.40;;;3.13;;
17917;SDS011;9084;50.956;3.106;2023-04-30T13:53:41;5.05;;;3.22;;
17917;SDS011;9084;50.956;3.106;2023-04-30T13:56:07;3.85;;;2.78;;
17917;SDS011;9084;50.956;3.106;2023-04-30T13:58:35;3.30;;;3.00;;
17917;SDS011;9084;50.956;3.106;2023-04-30T14:01:00;3.45;;;3.15;;
17917;SDS011;9084;50.956;3.106;2023-04-30T14:03:28;3.63;;;3.13;;
17917;SDS011;9084;50.956;3.106;2023-04-30T14:05:54;3.47;;;3.17;;
17917;SDS011;9084;50.956;3.106;2023-04-30T14:08:22;2.50;;;2.22;;
17917;SDS011;9084;50.956;3.106;2023-04-30T14:10:50;3.03;;;2.78;;
17917;SDS011;9084;50.956;3.106;2023-04-30T14:13:19;3.70;;;2.63;;
17917;SDS011;9084;50.956;3.106;2023-04-30T14:15:44;3.45;;;3.15;;
17917;SDS011;9084;50.956;3.106;2023-04-30T14:18:11;3.00;;;2.70;;
17917;SDS011;9084;50.956;3.106;2023-04-30T14:20:38;4.50;;;2.88;;
17917;SDS011;9084;50.956;3.106;2023-04-30T14:23:06;4.03;;;3.45;;
17917;SDS011;9084;50.956;3.106;2023-04-30T14:25:32;4.65;;;2.90;;
17917;SDS011;9084;50.956;3.106;2023-04-30T14:27:58;3.25;;;2.95;;
17917;SDS011;9084;50.956;3.106;2023-04-30T14:30:24;3.13;;;2.60;;
17917;SDS011;9084;50.956;3.106;2023-04-30T14:32:49;2.80;;;2.60;;
17917;SDS011;9084;50.956;3.106;2023-04-30T14:35:15;3.00;;;2.80;;
17917;SDS011;9084;50.956;3.106;2023-04-30T14:37:43;2.92;;;2.72;;
17917;SDS011;9084;50.956;3.106;2023-04-30T14:40:11;3.85;;;2.70;;
17917;SDS011;9084;50.956;3.106;2023-04-30T14:42:42;3.63;;;2.90;;
17917;SDS011;9084;50.956;3.106;2023-04-30T14:45:08;3.53;;;2.83;;
17917;SDS011;9084;50.956;3.106;2023-04-30T14:47:34;2.67;;;2.47;;
17917;SDS011;9084;50.956;3.106;2023-04-30T14:50:03;3.92;;;2.78;;
17917;SDS011;9084;50.956;3.106;2023-04-30T14:52:29;4.93;;;3.45;;
17917;SDS011;9084;50.956;3.106;2023-04-30T14:54:57;3.35;;;3.05;;
17917;SDS011;9084;50.956;3.106;2023-04-30T14:57:23;2.70;;;2.50;;
17917;SDS011;9084;50.956;3.106;2023-04-30T14:59:48;6.03;;;3.00;;
17917;SDS011;9084;50.956;3.106;2023-04-30T15:02:16;5.35;;;3.08;;
17917;SDS011;9084;50.956;3.106;2023-04-30T15:04:45;3.85;;;3.30;;
17917;SDS011;9084;50.956;3.106;2023-04-30T15:07:11;3.38;;;2.60;;
17917;SDS011;9084;50.956;3.106;2023-04-30T15:09:37;3.50;;;3.20;;
17917;SDS011;9084;50.956;3.106;2023-04-30T15:12:05;2.85;;;2.65;;
17917;SDS011;9084;50.956;3.106;2023-04-30T15:14:30;3.55;;;3.15;;
17917;SDS011;9084;50.956;3.106;2023-04-30T15:16:56;3.20;;;2.67;;
17917;SDS011;9084;50.956;3.106;2023-04-30T15:19:22;3.13;;;2.92;;
17917;SDS011;9084;50.956;3.106;2023-04-30T15:21:48;3.08;;;2.78;;
17917;SDS011;9084;50.956;3.106;2023-04-30T15:24:16;3.40;;;3.10;;
17917;SDS011;9084;50.956;3.106;2023-04-30T15:26:44;3.22;;;2.60;;
17917;SDS011;9084;50.956;3.106;2023-04-30T15:29:09;3.03;;;2.70;;
17917;SDS011;9084;50.956;3.106;2023-04-30T15:31:36;5.07;;;3.50;;
17917;SDS011;9084;50.956;3.106;2023-04-30T15:34:01;3.50;;;3.20;;
17917;SDS011;9084;50.956;3.106;2023-04-30T15:36:30;4.90;;;3.58;;